Time;durP1;ratioP1;P1;durP2;ratioP2;P2;SDS_P1;SDS_P2;PMS_P1;PMS_P2;Temp;Humidity;BMP_temperature;BMP_pressure;BME280_temperature;BME280_humidity;BME280_pressure;Samples;Min_cycle;Max_cycle;Signal;HPM_P1;HPM_P2
2022/08/25 00:01:16;;;;;;;4.70;1.77;;;;;;;24.00;45.36;100369.72;5115559;28;20043;-78
2022/08/25 00:03:43;;;;;;;3.40;1.55;;;;;;;23.92;45.70;100371.03;5097109;28;20027;-78
2022/08/25 00:06:10;;;;;;;4.55;1.75;;;;;;;23.90;45.77;100370.66;5115222;28;20139;-78
2022/08/25 00:08:36;;;;;;;4.35;2.00;;;;;;;23.92;45.97;100371.81;5115713;28;20039;-78
2022/08/25 00:11:12;;;;;;;3.92;1.73;;;;;;;23.91;45.57;100373.03;5097053;28;20442;-78
2022/08/25 00:13:41;;;;;;;3.20;1.60;;;;;;;23.90;45.68;100367.88;5115221;28;20023;-78
2022/08/25 00:16:07;;;;;;;3.10;1.48;;;;;;;23.86;44.97;100369.94;5115271;28;20350;-78
2022/08/25 00:18:32;;;;;;;3.20;1.67;;;;;;;23.88;45.02;100367.53;5115047;28;20122;-79
2022/08/25 00:20:58;;;;;;;4.07;1.88;;;;;;;23.92;44.55;100368.25;5114976;28;20038;-78
2022/08/25 00:23:23;;;;;;;4.88;1.50;;;;;;;23.94;44.50;100366.63;5115373;28;20111;-79
2022/08/25 00:25:49;;;;;;;3.58;1.50;;;;;;;24.00;43.93;100369.72;5115087;28;20055;-79
2022/08/25 00:28:15;;;;;;;3.95;1.60;;;;;;;24.10;43.71;100362.41;5115096;28;20452;-79
2022/08/25 00:30:42;;;;;;;4.55;2.47;;;;;;;24.11;43.28;100356.44;5115225;28;20028;-78
2022/08/25 00:33:07;;;;;;;3.83;1.50;;;;;;;24.12;43.28;100360.00;5115117;28;20023;-78
2022/08/25 00:35:33;;;;;;;3.55;1.52;;;;;;;24.11;43.33;100362.00;5114767;28;20035;-78
2022/08/25 00:37:58;;;;;;;3.80;1.50;;;;;;;24.11;43.16;100367.56;5114752;28;20032;-78
2022/08/25 00:40:25;;;;;;;4.53;1.75;;;;;;;24.04;43.29;100370.47;5114815;28;20080;-78
2022/08/25 00:42:51;;;;;;;3.38;1.25;;;;;;;24.07;43.32;100371.63;5114687;28;20481;-78
2022/08/25 00:45:17;;;;;;;3.53;1.50;;;;;;;24.05;43.44;100372.03;5114930;28;20070;-78
2022/08/25 00:47:43;;;;;;;2.85;1.38;;;;;;;24.06;43.74;100376.41;5114838;28;20024;-78
2022/08/25 00:50:10;;;;;;;3.67;1.40;;;;;;;24.09;43.37;100377.53;5114783;28;20032;-78
2022/08/25 00:52:49;;;;;;;3.13;1.48;;;;;;;24.00;43.85;100375.28;5114386;28;20036;-78
2022/08/25 00:55:20;;;;;;;3.63;1.38;;;;;;;23.95;43.80;100367.41;5096408;28;20024;-78
2022/08/25 00:57:51;;;;;;;4.25;1.30;;;;;;;23.96;43.66;100369.78;5114178;28;20039;-78
2022/08/25 01:00:31;;;;;;;2.60;1.17;;;;;;;23.97;43.66;100381.69;5114813;28;20470;-78
2022/08/25 01:02:57;;;;;;;3.10;1.42;;;;;;;23.90;44.41;100376.22;5114581;28;20035;-78
2022/08/25 01:08:01;;;;;;;4.25;1.60;;;;;;;23.70;44.32;100374.13;5870547;22;20019;-77
2022/08/25 01:10:27;;;;;;;3.35;1.40;;;;;;;23.70;44.11;100368.56;5072285;28;20124;-78
2022/08/25 01:12:57;;;;;;;3.10;1.40;;;;;;;23.81;44.01;100373.16;5073385;28;20127;-77
2022/08/25 01:15:22;;;;;;;3.53;1.40;;;;;;;23.84;43.76;100373.13;5073344;28;20426;-78
2022/08/25 01:17:54;;;;;;;4.75;2.45;;;;;;;23.84;44.01;100369.53;5055559;28;20063;-78
2022/08/25 01:20:23;;;;;;;3.33;1.25;;;;;;;23.53;45.03;100368.78;5055268;28;20029;-78
2022/08/25 01:22:49;;;;;;;2.72;1.40;;;;;;;23.72;44.41;100370.13;5055335;28;20040;-78
2022/08/25 01:25:44;;;;;;;3.35;1.52;;;;;;;23.63;44.71;100365.06;5073428;28;20050;-78
2022/08/25 01:28:10;;;;;;;3.92;1.60;;;;;;;23.55;45.18;100369.91;5073581;28;20032;-78
2022/08/25 01:30:36;;;;;;;3.28;1.55;;;;;;;23.57;45.53;100378.66;5073048;28;20070;-78
2022/08/25 01:33:05;;;;;;;3.60;1.50;;;;;;;23.56;45.68;100374.28;5072987;28;20060;-78
2022/08/25 01:35:31;;;;;;;3.05;1.38;;;;;;;23.48;45.92;100367.22;5073270;28;20075;-78
2022/08/25 01:37:57;;;;;;;3.72;1.60;;;;;;;23.39;46.26;100369.72;5072941;28;20444;-78
2022/08/25 01:40:22;;;;;;;3.33;1.70;;;;;;;23.40;45.95;100368.53;5072817;28;20099;-78
2022/08/25 01:42:57;;;;;;;3.83;1.45;;;;;;;23.41;45.92;100367.31;5072920;28;20548;-78
2022/08/25 01:45:23;;;;;;;5.85;1.80;;;;;;;23.13;47.11;100375.97;5072767;28;20025;-78
2022/08/25 01:47:48;;;;;;;3.08;1.40;;;;;;;23.16;46.88;100373.16;5072691;28;20486;-78
2022/08/25 01:50:14;;;;;;;3.70;1.35;;;;;;;23.12;46.88;100375.19;5072871;28;20028;-78
2022/08/25 01:52:59;;;;;;;3.90;2.00;;;;;;;22.86;47.73;100373.91;5073082;28;20035;-79
2022/08/25 01:55:25;;;;;;;4.07;1.60;;;;;;;23.18;46.14;100379.09;5073007;28;20040;-78
2022/08/25 01:57:51;;;;;;;5.00;1.52;;;;;;;23.11;46.06;100368.84;5072866;28;20028;-77
2022/08/25 02:00:18;;;;;;;3.00;1.50;;;;;;;23.03;46.81;100359.03;5073034;28;20463;-77
2022/08/25 02:02:44;;;;;;;2.88;1.40;;;;;;;23.05;47.19;100361.41;5072761;28;20439;-77
2022/08/25 02:05:12;;;;;;;3.95;1.45;;;;;;;22.93;47.38;100370.25;5072592;28;20085;-77
2022/08/25 02:07:39;;;;;;;3.83;1.48;;;;;;;22.66;47.94;100370.06;5072505;28;20039;-77
2022/08/25 02:10:05;;;;;;;5.13;1.63;;;;;;;22.65;48.68;100371.28;5071937;28;20052;-80
2022/08/25 02:12:32;;;;;;;3.45;1.60;;;;;;;22.62;48.47;100367.34;5072527;28;20067;-77
2022/08/25 02:15:00;;;;;;;3.72;1.60;;;;;;;22.47;49.00;100365.88;5072789;28;20036;-78
2022/08/25 02:17:27;;;;;;;5.03;1.80;;;;;;;22.67;48.61;100363.31;5072722;28;20109;-77
2022/08/25 02:19:54;;;;;;;4.00;1.73;;;;;;;22.65;48.33;100368.50;5072782;28;20028;-77
2022/08/25 02:22:20;;;;;;;3.40;1.58;;;;;;;22.70;48.29;100373.63;5072485;28;20032;-78
2022/08/25 02:24:45;;;;;;;3.65;1.63;;;;;;;22.64;49.06;100378.81;5072655;28;20040;-79
2022/08/25 02:27:10;;;;;;;2.65;1.23;;;;;;;22.52;48.95;100376.56;5072627;28;20352;-80
2022/08/25 02:29:36;;;;;;;3.58;1.50;;;;;;;22.30;49.59;100375.94;5072756;28;20028;-78
2022/08/25 02:32:02;;;;;;;4.20;1.88;;;;;;;22.20;49.66;100376.81;5072457;28;20110;-78
2022/08/25 02:34:28;;;;;;;3.10;1.70;;;;;;;22.16;50.13;100384.34;5072786;28;20029;-78
2022/08/25 02:36:53;;;;;;;3.45;1.67;;;;;;;22.12;50.00;100380.81;5071314;28;20478;-78
2022/08/25 02:39:18;;;;;;;3.47;1.58;;;;;;;22.04;50.03;100379.28;5072730;28;20029;-79
2022/08/25 02:41:44;;;;;;;3.53;1.73;;;;;;;21.99;50.06;100385.22;5071254;28;20033;-78
2022/08/25 02:44:09;;;;;;;3.20;1.55;;;;;;;21.98;50.14;100389.19;5071269;28;20032;-79
2022/08/25 02:46:36;;;;;;;5.10;1.52;;;;;;;22.01;49.75;100377.31;5072977;28;20521;-79
2022/08/25 02:49:03;;;;;;;3.30;1.60;;;;;;;22.02;49.98;100376.13;5072451;28;20118;-78
2022/08/25 02:51:29;;;;;;;3.58;1.55;;;;;;;22.02;49.92;100365.81;5072719;28;20036;-78
2022/08/25 02:53:56;;;;;;;3.55;1.60;;;;;;;22.02;50.18;100371.38;5072311;28;20035;-79
2022/08/25 02:56:22;;;;;;;3.95;1.65;;;;;;;21.99;50.55;100371.34;5072968;28;20033;-79
2022/08/25 02:58:48;;;;;;;3.63;1.75;;;;;;;21.93;50.62;100377.34;5072671;28;20036;-80
2022/08/25 03:01:14;;;;;;;3.45;1.50;;;;;;;21.92;50.48;100366.66;5072332;28;20029;-79
2022/08/25 03:03:41;;;;;;;3.38;1.55;;;;;;;21.89;50.75;100370.25;5071274;28;20413;-79
2022/08/25 03:06:07;;;;;;;3.78;1.52;;;;;;;21.93;50.00;100377.34;5071368;28;20368;-78
2022/08/25 03:08:33;;;;;;;4.05;1.55;;;;;;;21.91;50.60;100368.66;5072331;28;20147;-78
2022/08/25 03:10:58;;;;;;;6.03;1.75;;;;;;;21.81;50.97;100363.94;5071220;28;20123;-78
2022/08/25 03:13:23;;;;;;;4.22;2.00;;;;;;;21.79;51.22;100363.56;5071166;28;20028;-78
2022/08/25 03:15:49;;;;;;;4.25;1.80;;;;;;;21.91;50.93;100365.88;5071841;28;20028;-77
2022/08/25 03:18:14;;;;;;;6.15;1.75;;;;;;;21.72;51.71;100355.31;5071989;28;20032;-78
2022/08/25 03:20:41;;;;;;;5.07;2.13;;;;;;;21.95;51.72;100353.97;5071739;28;20032;-78
2022/08/25 03:23:06;;;;;;;3.65;1.80;;;;;;;22.10;51.06;100344.38;5075419;28;20096;-78
2022/08/25 03:28:18;;;;;;;3.70;1.50;;;;;;;21.77;52.02;100346.56;5075439;28;20039;-77
2022/08/25 03:30:43;;;;;;;5.90;2.45;;;;;;;21.64;52.20;100337.13;5075691;28;20032;-77
2022/08/25 03:33:09;;;;;;;6.07;2.00;;;;;;;21.66;52.50;100339.47;5075366;28;20033;-78
2022/08/25 03:35:34;;;;;;;3.97;1.75;;;;;;;21.55;52.64;100339.56;5075662;28;20029;-78
2022/08/25 03:38:00;;;;;;;4.53;2.17;;;;;;;21.47;52.77;100338.78;5075091;28;20479;-78
2022/08/25 03:40:26;;;;;;;3.35;1.75;;;;;;;21.41;52.91;100348.72;5075299;28;20040;-78
2022/08/25 03:42:52;;;;;;;4.18;1.80;;;;;;;21.40;53.12;100347.16;5074024;28;20036;-77
2022/08/25 03:45:18;;;;;;;4.32;1.92;;;;;;;21.40;53.79;100343.59;5075389;28;20339;-77
2022/08/25 03:47:48;;;;;;;4.45;2.25;;;;;;;21.36;53.50;100343.59;5074137;28;20033;-78
2022/08/25 03:50:15;;;;;;;4.05;1.80;;;;;;;21.34;53.71;100342.44;5075370;28;20421;-77
2022/08/25 03:52:40;;;;;;;4.45;2.25;;;;;;;21.28;53.63;100342.84;5075309;28;20043;-78
2022/08/25 03:55:08;;;;;;;5.35;1.83;;;;;;;21.58;53.23;100335.97;5075336;28;20439;-77
2022/08/25 03:57:34;;;;;;;3.70;2.00;;;;;;;21.38;53.40;100341.22;5075564;28;20036;-78
2022/08/25 03:59:59;;;;;;;4.78;2.00;;;;;;;21.41;53.89;100334.09;5075330;28;20036;-78
2022/08/25 04:02:25;;;;;;;3.55;1.70;;;;;;;21.33;54.04;100341.63;5075188;28;20032;-78
2022/08/25 04:04:50;;;;;;;3.67;1.83;;;;;;;21.43;54.44;100335.25;5074818;28;20036;-78
2022/08/25 04:07:16;;;;;;;4.93;1.83;;;;;;;21.48;54.07;100331.28;5075066;28;20036;-78
2022/08/25 04:09:41;;;;;;;4.65;2.38;;;;;;;21.54;53.13;100336.00;5074960;28;20048;-78
2022/08/25 04:12:07;;;;;;;3.40;1.60;;;;;;;21.48;53.20;100334.03;5074866;28;20028;-78
2022/08/25 04:14:32;;;;;;;5.72;2.20;;;;;;;21.51;53.17;100331.28;5074770;28;20043;-78
2022/08/25 04:16:57;;;;;;;3.38;1.65;;;;;;;21.41;53.80;100325.78;5074956;28;20056;-79
2022/08/25 04:19:23;;;;;;;4.60;2.13;;;;;;;21.48;53.17;100312.66;5074575;28;20056;-78
2022/08/25 04:21:48;;;;;;;4.28;1.63;;;;;;;21.46;53.57;100311.50;5073201;28;20036;-78
2022/08/25 04:24:14;;;;;;;4.60;2.22;;;;;;;21.30;54.21;100309.19;5074719;28;20036;-79
2022/08/25 04:26:46;;;;;;;4.30;1.98;;;;;;;21.31;53.95;100308.00;5074276;28;20029;-79
2022/08/25 04:29:14;;;;;;;3.85;1.85;;;;;;;21.36;54.46;100309.59;5074473;28;20085;-79
2022/08/25 04:31:45;;;;;;;3.90;1.90;;;;;;;21.31;54.35;100314.34;5074551;28;20025;-79
2022/08/25 04:34:11;;;;;;;3.90;1.95;;;;;;;21.28;54.43;100306.03;5072791;28;20093;-79
2022/08/25 04:36:37;;;;;;;4.53;2.05;;;;;;;21.19;55.12;100302.91;5075384;28;20028;-80
2022/08/25 04:39:03;;;;;;;8.43;2.25;;;;;;;21.19;55.05;100300.13;5075673;28;20040;-80
2022/08/25 04:41:30;;;;;;;;;;;;;;;21.12;55.08;100306.47;5076271;28;20199;-80
2022/08/25 04:43:57;;;;;;;4.60;1.77;;;;;;;21.11;55.38;100310.44;5075838;28;19909;-82
2022/08/25 04:46:25;;;;;;;6.47;2.67;;;;;;;21.07;55.61;100309.66;5074593;28;20451;-81
2022/08/25 04:48:52;;;;;;;4.32;2.15;;;;;;;20.97;56.30;100307.72;5074296;28;20055;-80
2022/08/25 04:51:26;;;;;;;4.13;2.20;;;;;;;21.00;56.13;100313.25;5074097;28;20424;-81
2022/08/25 04:53:53;;;;;;;4.47;1.90;;;;;;;20.98;56.43;100317.59;5072505;28;20032;-81
2022/08/25 04:56:23;;;;;;;4.97;2.10;;;;;;;20.88;56.91;100323.97;5073863;28;20070;-79
2022/08/25 04:58:50;;;;;;;4.82;2.42;;;;;;;20.84;56.98;100320.44;5074061;28;20075;-80
2022/08/25 05:01:19;;;;;;;4.40;1.88;;;;;;;20.76;57.75;100316.09;5074768;28;20029;-81
2022/08/25 05:03:46;;;;;;;4.20;2.08;;;;;;;20.70;57.81;100319.25;5074420;28;20033;-81
2022/08/25 05:06:12;;;;;;;4.15;1.98;;;;;;;20.76;57.45;100310.53;5075538;28;20028;-81
2022/08/25 05:08:38;;;;;;;5.72;2.33;;;;;;;20.71;57.46;100307.00;5073695;28;20063;-82
2022/08/25 05:11:09;;;;;;;4.40;1.95;;;;;;;20.71;57.59;100308.97;5074162;28;20032;-82
2022/08/25 05:13:35;;;;;;;5.10;2.30;;;;;;;20.70;57.99;100316.50;5072916;28;20113;-82
2022/08/25 05:16:01;;;;;;;4.55;2.40;;;;;;;20.79;57.48;100310.53;5074098;28;20029;-81
2022/08/25 05:18:28;;;;;;;5.35;2.72;;;;;;;20.85;57.38;100303.41;5073244;28;20313;-81
2022/08/25 05:20:55;;;;;;;5.82;2.30;;;;;;;20.90;57.63;100307.75;5073754;28;20095;-81
2022/08/25 05:23:23;;;;;;;6.43;2.20;;;;;;;20.85;57.94;100303.41;5073420;28;20032;-80
2022/08/25 05:25:51;;;;;;;6.72;2.47;;;;;;;20.90;57.70;100308.53;5073520;28;20040;-81
2022/08/25 05:28:18;;;;;;;5.45;2.40;;;;;;;20.89;57.63;100303.41;5073718;28;20069;-83
2022/08/25 05:30:44;;;;;;;4.75;2.38;;;;;;;20.94;57.76;100305.75;5072864;28;20090;-85
2022/08/25 05:33:12;;;;;;;5.30;2.28;;;;;;;21.02;57.62;100315.63;5074601;28;20078;-83
2022/08/25 05:35:37;;;;;;;7.22;2.55;;;;;;;21.09;57.47;100314.81;5072558;28;20079;-83
2022/08/25 05:38:04;;;;;;;4.53;1.98;;;;;;;21.09;57.41;100312.81;5073864;28;20029;-82
2022/08/25 05:40:30;;;;;;;4.22;2.17;;;;;;;21.12;57.29;100305.69;5073956;28;20452;-80
2022/08/25 05:42:55;;;;;;;5.60;2.65;;;;;;;21.09;57.57;100307.28;5073192;28;20241;-79
2022/08/25 05:45:21;;;;;;;6.60;3.00;;;;;;;21.24;57.18;100306.06;5073553;28;20031;-79
2022/08/25 05:47:47;;;;;;;4.40;2.40;;;;;;;21.30;56.88;100300.88;5073272;28;20028;-78
2022/08/25 05:50:13;;;;;;;4.32;2.10;;;;;;;21.28;57.12;100298.53;5073473;28;20060;-78
2022/08/25 05:52:38;;;;;;;6.72;2.50;;;;;;;21.29;57.16;100296.53;5072792;28;20170;-79
2022/08/25 05:55:05;;;;;;;6.85;2.38;;;;;;;21.38;57.00;100302.44;5073003;28;20424;-79
2022/08/25 05:57:32;;;;;;;5.03;2.20;;;;;;;21.46;56.80;100303.19;5072547;28;20463;-79
2022/08/25 05:59:57;;;;;;;5.35;2.20;;;;;;;21.51;56.78;100300.00;5072687;28;20052;-79
2022/08/25 06:02:42;;;;;;;5.13;2.30;;;;;;;21.48;56.95;100295.25;5072537;28;20415;-79
2022/08/25 06:05:19;;;;;;;4.35;2.08;;;;;;;21.52;56.90;100302.38;5072312;28;20020;-79
2022/08/25 06:07:46;;;;;;;4.13;2.25;;;;;;;21.57;56.70;100298.38;5072202;28;20447;-79
2022/08/25 06:10:12;;;;;;;5.00;2.08;;;;;;;21.62;56.51;100297.94;5072250;28;20048;-79
2022/08/25 06:12:39;;;;;;;4.10;2.08;;;;;;;21.79;56.13;100297.03;5072010;28;20029;-79
2022/08/25 06:15:06;;;;;;;4.97;2.35;;;;;;;21.79;56.37;100299.03;5072759;28;20049;-79
2022/08/25 06:17:34;;;;;;;5.22;2.80;;;;;;;21.88;56.31;100294.63;5073229;28;20433;-79
2022/08/25 06:19:59;;;;;;;5.05;2.55;;;;;;;21.97;55.96;100293.34;5072378;28;20530;-79
2022/08/25 06:22:25;;;;;;;4.70;2.42;;;;;;;22.02;56.17;100298.50;5070762;28;20033;-79
2022/08/25 06:24:52;;;;;;;4.55;2.25;;;;;;;22.01;56.29;100299.69;5072367;28;20124;-79
2022/08/25 06:27:17;;;;;;;4.88;1.92;;;;;;;21.97;56.30;100294.16;5071905;28;20049;-79
2022/08/25 06:29:43;;;;;;;5.07;2.40;;;;;;;22.06;55.98;100297.28;5070292;28;20024;-79
2022/08/25 06:32:08;;;;;;;4.55;2.30;;;;;;;22.16;55.58;100301.16;5072153;28;20055;-79
2022/08/25 06:34:34;;;;;;;10.18;2.53;;;;;;;22.11;55.97;100296.84;5071807;28;20032;-79
2022/08/25 06:36:59;;;;;;;5.03;2.22;;;;;;;22.13;55.72;100296.44;5072049;28;20040;-79
2022/08/25 06:39:24;;;;;;;5.47;2.08;;;;;;;22.17;55.90;100299.94;5070780;28;20025;-78
2022/08/25 06:41:55;;;;;;;4.63;2.35;;;;;;;22.21;55.88;100301.53;5072384;28;20097;-78
2022/08/25 06:44:21;;;;;;;4.40;2.38;;;;;;;22.25;55.94;100300.69;5072502;28;20031;-79
2022/08/25 06:46:46;;;;;;;4.85;2.45;;;;;;;22.37;56.15;100301.00;5071901;28;20486;-79
2022/08/25 06:49:12;;;;;;;5.28;2.30;;;;;;;22.60;55.13;100305.91;5072299;28;20060;-80
2022/08/25 06:51:38;;;;;;;8.13;3.22;;;;;;;22.56;55.27;100307.16;5070775;28;20033;-79
2022/08/25 06:54:05;;;;;;;5.00;2.50;;;;;;;22.77;55.02;100307.72;5071913;28;20021;-79
2022/08/25 06:56:31;;;;;;;4.80;2.13;;;;;;;23.26;53.47;100302.03;5073573;28;20025;-80
2022/08/25 06:58:59;;;;;;;5.63;2.13;;;;;;;23.75;52.36;100306.13;5076104;28;20040;-79
2022/08/25 07:01:25;;;;;;;6.30;2.00;;;;;;;24.13;51.34;100311.50;5076270;28;20463;-79
2022/08/25 07:03:56;;;;;;;4.95;2.30;;;;;;;24.20;51.43;100319.75;5076141;28;20029;-79
2022/08/25 07:06:22;;;;;;;3.72;1.88;;;;;;;24.10;51.68;100315.13;5076189;28;20081;-80
2022/08/25 07:08:47;;;;;;;4.90;2.00;;;;;;;24.07;51.88;100319.56;5075875;28;20075;-79
2022/08/25 07:11:17;;;;;;;6.28;2.72;;;;;;;23.88;52.36;100323.03;5074855;28;20123;-79
2022/08/25 07:13:43;;;;;;;6.13;2.75;;;;;;;23.91;52.04;100320.19;5075357;28;20045;-79
2022/08/25 07:16:10;;;;;;;4.53;2.25;;;;;;;23.68;52.50;100326.50;5075996;28;20039;-79
2022/08/25 07:18:35;;;;;;;6.25;2.63;;;;;;;23.61;52.82;100325.78;5076077;28;20400;-80
2022/08/25 07:21:04;;;;;;;8.13;2.40;;;;;;;23.63;52.83;100326.16;5076075;28;20025;-79
2022/08/25 07:23:29;;;;;;;5.05;2.25;;;;;;;23.71;52.65;100324.88;5076712;28;20028;-79
2022/08/25 07:25:55;;;;;;;5.47;1.83;;;;;;;23.83;52.29;100320.72;5075421;28;20364;-80
2022/08/25 07:28:21;;;;;;;6.15;2.65;;;;;;;23.94;52.08;100315.78;5076045;28;20478;-79
2022/08/25 07:30:49;;;;;;;4.97;2.15;;;;;;;23.89;52.36;100311.50;5075645;28;20055;-79
2022/08/25 07:33:15;;;;;;;5.65;2.28;;;;;;;23.93;52.70;100311.44;5075981;28;20024;-79
2022/08/25 07:35:40;;;;;;;4.90;2.30;;;;;;;24.14;52.16;100305.53;5075521;28;20033;-79
2022/08/25 07:38:06;;;;;;;4.63;2.20;;;;;;;24.42;51.45;100311.84;5075717;28;20024;-79
2022/08/25 07:40:35;;;;;;;4.75;2.35;;;;;;;24.61;51.11;100313.88;5075407;28;20132;-79
2022/08/25 07:43:04;;;;;;;4.65;2.17;;;;;;;24.73;50.74;100302.13;5074237;28;20066;-80
2022/08/25 07:45:33;;;;;;;8.68;2.80;;;;;;;24.41;51.21;100307.50;5074135;28;20029;-79
2022/08/25 07:48:01;;;;;;;5.95;2.72;;;;;;;24.45;51.14;100311.00;5075626;28;20037;-79
2022/08/25 07:50:30;;;;;;;4.85;2.00;;;;;;;24.63;51.01;100302.31;5075947;28;20108;-79
2022/08/25 07:52:56;;;;;;;4.90;2.10;;;;;;;24.73;50.75;100304.13;5075435;28;20024;-79
2022/08/25 07:55:23;;;;;;;4.68;2.17;;;;;;;24.68;51.05;100305.38;5075497;28;20123;-81
2022/08/25 07:57:50;;;;;;;5.25;2.10;;;;;;;24.78;50.66;100296.06;5075927;28;20028;-81
2022/08/25 08:00:17;;;;;;;5.13;2.22;;;;;;;24.96;50.34;100294.94;5076160;28;20029;-82
2022/08/25 08:02:43;;;;;;;4.15;2.03;;;;;;;24.93;50.70;100304.16;5075926;28;20028;-81
2022/08/25 08:05:10;;;;;;;4.75;2.20;;;;;;;25.03;50.44;100312.31;5075893;28;20035;-82
2022/08/25 08:07:36;;;;;;;3.67;1.80;;;;;;;25.18;49.87;100299.66;5074238;28;20084;-81
2022/08/25 08:10:03;;;;;;;5.22;2.30;;;;;;;25.19;50.12;100298.47;5075386;28;20500;-82
2022/08/25 08:12:28;;;;;;;8.40;4.32;;;;;;;25.41;49.73;100298.00;5075722;28;20447;-81
2022/08/25 08:14:54;;;;;;;5.07;2.60;;;;;;;25.48;48.94;100303.41;5075443;28;20028;-82
2022/08/25 08:17:19;;;;;;;5.70;2.13;;;;;;;25.38;49.28;100299.66;5074756;28;20123;-81
2022/08/25 08:19:45;;;;;;;4.55;2.20;;;;;;;25.40;50.24;100297.22;5074847;28;20524;-82
2022/08/25 08:22:13;;;;;;;4.47;2.22;;;;;;;25.52;48.96;100297.75;5074641;28;20066;-81
2022/08/25 08:24:39;;;;;;;6.30;2.25;;;;;;;25.62;49.08;100296.72;5074409;28;20180;-79
2022/08/25 08:27:06;;;;;;;3.95;1.90;;;;;;;25.93;48.57;100288.88;5074969;28;20723;-79
2022/08/25 08:29:32;;;;;;;5.95;2.50;;;;;;;26.19;47.82;100285.00;5074298;28;20070;-80
2022/08/25 08:31:58;;;;;;;4.60;2.30;;;;;;;26.03;48.25;100288.63;5074531;28;20398;-80
2022/08/25 08:34:24;;;;;;;4.38;2.10;;;;;;;26.13;47.54;100286.78;5073082;28;20084;-80
2022/08/25 08:36:49;;;;;;;6.60;2.08;;;;;;;26.27;47.75;100274.47;5072912;28;20048;-80
2022/08/25 08:39:15;;;;;;;4.28;1.88;;;;;;;26.49;47.76;100269.13;5074271;28;20028;-80
2022/08/25 08:44:38;;;;;;;4.80;2.22;;;;;;;26.34;47.04;100269.47;5073951;28;20106;-80
2022/08/25 08:47:10;;;;;;;8.25;3.15;;;;;;;26.43;46.91;100268.88;5074183;28;20028;-79
2022/08/25 08:50:02;;;;;;;4.97;2.40;;;;;;;26.50;46.75;100270.69;5072961;28;20395;-79
2022/08/25 08:52:45;;;;;;;4.40;1.92;;;;;;;26.68;45.92;100265.41;5073971;28;20032;-79
2022/08/25 08:55:26;;;;;;;4.82;2.30;;;;;;;26.68;46.54;100254.22;5073723;28;20040;-78
2022/08/25 08:57:54;;;;;;;4.15;2.03;;;;;;;26.85;45.68;100252.16;5072466;28;20119;-79
2022/08/25 09:00:20;;;;;;;5.05;2.30;;;;;;;26.83;45.84;100257.41;5073630;28;20035;-79
2022/08/25 09:03:01;;;;;;;6.45;2.30;;;;;;;27.28;44.44;100249.72;5073711;28;20107;-79
2022/08/25 09:05:29;;;;;;;4.88;2.00;;;;;;;27.28;43.93;100255.31;5074088;28;20029;-79
2022/08/25 09:08:09;;;;;;;5.07;2.45;;;;;;;27.31;44.28;100258.44;5073463;28;20025;-79
2022/08/25 09:10:59;;;;;;;3.78;2.15;;;;;;;27.41;43.70;100251.75;5072317;28;20078;-79
2022/08/25 09:13:49;;;;;;;4.07;1.98;;;;;;;27.38;44.14;100241.44;5073345;28;20491;-79
2022/08/25 09:19:35;;;;;;;4.40;2.15;;;;;;;27.61;43.89;100235.53;5072678;28;20541;-79
2022/08/25 09:22:07;;;;;;;4.78;2.03;;;;;;;27.60;43.91;100230.38;5073507;28;20043;-79
2022/08/25 09:24:42;;;;;;;5.43;2.20;;;;;;;27.78;43.77;100234.19;5072014;28;20386;-79
2022/08/25 09:27:20;;;;;;;3.63;1.80;;;;;;;27.65;43.35;100230.63;5072871;28;20093;-80
2022/08/25 09:29:51;;;;;;;4.32;2.10;;;;;;;27.44;44.07;100225.69;5072866;28;20040;-80
2022/08/25 09:32:17;;;;;;;4.53;2.38;;;;;;;27.65;43.88;100222.22;5072773;28;20060;-80
2022/08/25 09:34:45;;;;;;;3.80;1.88;;;;;;;27.50;43.73;100224.66;5072747;28;20028;-80
2022/08/25 09:37:11;;;;;;;4.80;2.30;;;;;;;27.61;43.89;100217.97;5072697;28;20412;-80
2022/08/25 09:39:37;;;;;;;3.47;2.03;;;;;;;27.82;42.82;100217.28;5072951;28;20032;-80
2022/08/25 09:42:03;;;;;;;7.97;2.17;;;;;;;27.97;42.51;100223.19;5073137;28;20131;-80
2022/08/25 09:44:39;;;;;;;6.35;1.95;;;;;;;27.77;42.88;100213.03;5072852;28;20454;-80
2022/08/25 09:47:16;;;;;;;4.45;2.08;;;;;;;28.03;42.80;100213.75;5073051;28;20050;-80
2022/08/25 09:49:45;;;;;;;4.20;2.13;;;;;;;28.32;42.37;100210.78;5072692;28;20045;-80
2022/08/25 09:52:31;;;;;;;4.90;2.10;;;;;;;28.38;41.92;100208.19;5072490;28;20340;-80
2022/08/25 09:55:14;;;;;;;4.20;2.20;;;;;;;28.52;41.58;100202.06;5072772;28;20033;-80
2022/08/25 09:57:43;;;;;;;4.55;2.13;;;;;;;28.61;41.62;100193.75;5072567;28;20040;-81
2022/08/25 10:00:12;;;;;;;6.03;2.55;;;;;;;28.89;41.08;100193.94;5072537;28;20036;-80
2022/08/25 10:02:37;;;;;;;6.70;2.10;;;;;;;28.83;40.88;100193.72;5072837;28;20040;-80
2022/08/25 10:05:58;;;;;;;4.20;2.05;;;;;;;28.99;40.96;100178.75;5071532;28;20490;-80
2022/08/25 10:08:39;;;;;;;6.35;2.30;;;;;;;29.30;40.53;100170.31;5040420;28;20051;-80
2022/08/25 10:11:11;;;;;;;6.00;2.30;;;;;;;28.79;41.30;100175.50;5072614;28;20363;-80
2022/08/25 10:13:44;;;;;;;4.63;2.15;;;;;;;28.86;41.40;100175.22;5071715;28;20026;-80
2022/08/25 10:16:23;;;;;;;4.15;1.85;;;;;;;29.06;41.32;100172.88;5073150;28;20108;-81
2022/08/25 10:19:08;;;;;;;4.53;2.00;;;;;;;29.26;40.96;100176.06;5073365;28;20032;-81
2022/08/25 10:21:36;;;;;;;4.10;2.00;;;;;;;29.23;40.03;100162.97;5072928;28;20033;-81
2022/08/25 10:24:04;;;;;;;3.60;1.77;;;;;;;29.50;39.50;100162.28;5072708;28;20067;-81
2022/08/25 10:26:50;;;;;;;5.38;2.15;;;;;;;29.09;40.72;100165.56;5072449;28;20028;-80
2022/08/25 10:29:44;;;;;;;4.32;2.22;;;;;;;29.08;40.15;100161.19;5071036;28;20032;-80
2022/08/25 10:32:17;;;;;;;6.63;2.63;;;;;;;29.29;40.34;100149.13;5071746;28;20037;-79
2022/08/25 10:34:55;;;;;;;4.57;2.20;;;;;;;29.36;39.68;100158.00;5072594;28;20039;-80
2022/08/25 10:38:00;;;;;;;4.50;2.13;;;;;;;29.26;40.00;100150.06;5072454;28;20173;-80
2022/08/25 10:40:50;;;;;;;5.40;2.13;;;;;;;29.47;39.08;100146.41;5070836;28;20172;-79
2022/08/25 10:43:38;;;;;;;4.40;2.30;;;;;;;29.63;38.91;100143.31;5072273;28;20457;-80
2022/08/25 10:46:06;;;;;;;5.80;2.10;;;;;;;29.62;39.16;100141.75;5043126;28;20055;-80
2022/08/25 10:48:59;;;;;;;7.47;2.50;;;;;;;29.43;39.23;100148.53;5072009;28;20031;-80
2022/08/25 10:51:33;;;;;;;4.28;2.00;;;;;;;29.27;39.63;100141.19;5070873;28;20036;-81
2022/08/25 10:54:04;;;;;;;4.13;2.08;;;;;;;29.43;39.09;100136.53;5071975;28;20039;-79
2022/08/25 10:56:40;;;;;;;4.75;1.92;;;;;;;29.65;39.01;100121.19;5071864;28;20047;-80
2022/08/25 10:59:11;;;;;;;4.35;2.10;;;;;;;29.84;37.96;100121.97;5072256;28;20112;-81
2022/08/25 11:01:49;;;;;;;4.30;2.33;;;;;;;29.54;38.95;100117.25;5072579;28;20442;-80
2022/08/25 11:04:19;;;;;;;4.32;2.10;;;;;;;29.52;38.80;100112.13;5072895;28;20094;-80
2022/08/25 11:06:54;;;;;;;4.30;2.10;;;;;;;29.50;39.59;100117.41;5071355;28;20555;-80
2022/08/25 11:09:24;;;;;;;4.68;1.98;;;;;;;29.69;38.61;100109.03;5072643;28;20132;-81
2022/08/25 11:12:27;;;;;;;3.90;1.90;;;;;;;29.93;38.13;100115.59;5071707;28;20052;-80
2022/08/25 11:14:57;;;;;;;6.72;2.67;;;;;;;30.15;37.59;100110.63;5048703;28;20051;-81
2022/08/25 11:17:44;;;;;;;4.95;2.40;;;;;;;30.16;37.59;100106.56;5072183;28;20028;-81
2022/08/25 11:20:16;;;;;;;5.13;2.63;;;;;;;30.29;37.15;100100.78;5072121;28;20032;-80
2022/08/25 11:22:50;;;;;;;4.45;1.83;;;;;;;30.42;36.49;100101.38;5071793;28;20413;-80
2022/08/25 11:25:22;;;;;;;4.93;2.25;;;;;;;30.13;37.37;100106.72;5071845;28;20572;-80
2022/08/25 11:27:52;;;;;;;5.28;2.28;;;;;;;30.43;36.54;100105.75;5072550;28;20446;-79
2022/08/25 11:30:18;;;;;;;4.10;2.17;;;;;;;30.59;36.37;100104.63;5071214;28;20111;-80
2022/08/25 11:32:48;;;;;;;5.13;2.10;;;;;;;30.57;36.06;100106.31;5072136;28;20119;-80
2022/08/25 11:35:16;;;;;;;3.67;1.83;;;;;;;30.18;35.72;100108.91;5071878;28;20076;-81
2022/08/25 11:38:19;;;;;;;3.95;2.00;;;;;;;30.20;35.75;100100.78;5071496;28;20443;-80
2022/08/25 11:41:12;;;;;;;4.07;1.90;;;;;;;30.53;35.16;100103.69;5071300;28;20430;-80
2022/08/25 11:43:55;;;;;;;4.13;2.30;;;;;;;30.37;35.02;100104.03;5074396;28;20398;-81
2022/08/25 11:46:44;;;;;;;4.57;2.00;;;;;;;30.19;35.35;100088.78;5075484;28;20140;-81